createdAt,value
2019-05-29T13:34:34.891Z,101710.58
2019-05-29T13:35:40.520Z,101711.34
2019-05-29T13:36:45.589Z,101710.88
2019-05-29T13:37:50.896Z,101706.46
2019-05-29T13:38:56.223Z,101703.80
2019-05-29T13:40:05.026Z,101701.75
2019-05-29T13:41:07.977Z,101696.33
2019-05-29T13:42:12.918Z,101698.77
2019-05-29T13:43:17.553Z,101698.16
2019-05-29T13:44:23.127Z,101697.69
2019-05-29T13:45:28.133Z,101701.81
2019-05-29T13:46:33.973Z,101700.38
2019-05-29T13:47:39.379Z,101704.45
2019-05-29T13:48:45.105Z,101699.11
2019-05-29T13:49:50.386Z,101702.67
2019-05-29T13:50:57.020Z,101701.25
2019-05-29T13:52:07.816Z,101700.84
2019-05-29T13:53:09.522Z,101693.63
2019-05-29T13:54:17.951Z,101696.74
2019-05-29T13:55:24.000Z,101695.44
2019-05-29T13:56:28.991Z,101697.33
2019-05-29T13:57:34.834Z,101690.18
2019-05-29T13:58:39.834Z,101697.33
2019-05-29T13:59:46.100Z,101690.27
2019-05-29T14:00:51.618Z,101696.56
2019-05-29T14:01:58.399Z,101686.16
2019-05-29T14:03:04.614Z,101690.77
2019-05-29T14:04:10.029Z,101690.83
2019-05-29T14:05:16.684Z,101687.92
2019-05-29T14:06:22.284Z,101685.34
2019-05-29T14:07:27.063Z,101686.09
2019-05-29T14:08:32.644Z,101688.12
2019-05-29T14:09:37.924Z,101687.81
2019-05-29T14:10:43.722Z,101680.23
2019-05-29T14:11:48.984Z,101684.36
2019-05-29T14:12:55.145Z,101685.55
2019-05-29T14:14:01.183Z,101690.38
2019-05-29T14:15:08.299Z,101689.57
2019-05-29T14:16:13.335Z,101685.22
2019-05-29T14:17:18.676Z,101689.12
2019-05-29T14:18:24.397Z,101691.37
2019-05-29T14:19:30.000Z,101688.79
2019-05-29T14:20:34.971Z,101695.66
2019-05-29T14:21:40.355Z,101687.06
2019-05-29T14:22:45.715Z,101696.04
2019-05-29T14:23:51.491Z,101685.47
2019-05-29T14:24:56.891Z,101685.99
2019-05-29T14:26:06.340Z,101685.81
2019-05-29T14:27:12.694Z,101678.73
2019-05-29T14:28:18.213Z,101686.52
2019-05-29T14:29:26.477Z,101690.02
2019-05-29T14:30:31.750Z,101683.59
2019-05-29T14:31:36.804Z,101685.02
2019-05-29T14:32:42.074Z,101686.70
2019-05-29T14:33:47.007Z,101682.97
2019-05-29T14:34:52.310Z,101682.23
2019-05-29T14:35:57.305Z,101683.47
2019-05-29T14:37:04.507Z,101685.02
2019-05-29T14:38:15.027Z,101682.30
2019-05-29T14:39:20.241Z,101687.10
2019-05-29T14:40:25.907Z,101679.43
2019-05-29T14:41:31.469Z,101681.03
2019-05-29T14:42:36.155Z,101683.84
2019-05-29T14:43:41.710Z,101677.91
2019-05-29T14:44:46.719Z,101678.39
2019-05-29T14:45:52.618Z,101682.65
2019-05-29T14:46:57.302Z,101682.11
2019-05-29T14:48:03.976Z,101682.33
2019-05-29T14:49:08.780Z,101675.70
2019-05-29T14:50:14.762Z,101683.09
2019-05-29T14:51:20.037Z,101683.97
2019-05-29T14:52:25.963Z,101679.62
2019-05-29T14:53:31.302Z,101675.28
2019-05-29T14:54:41.798Z,101683.24
2019-05-29T14:55:42.821Z,101673.80
2019-05-29T14:56:48.522Z,101677.67
2019-05-29T14:57:53.511Z,101679.80
2019-05-29T14:58:59.312Z,101677.62
2019-05-29T15:00:13.463Z,101681.01
2019-05-29T15:01:11.266Z,101675.26
2019-05-29T15:02:23.085Z,101668.88
2019-05-29T15:03:23.350Z,101669.95
2019-05-29T15:04:28.311Z,101678.84
2019-05-29T15:05:33.596Z,101676.23
2019-05-29T15:06:38.547Z,101677.01
2019-05-29T15:07:44.380Z,101681.41
2019-05-29T15:08:49.141Z,101676.30
2019-05-29T15:09:54.770Z,101685.48
2019-05-29T15:10:59.503Z,101688.33
2019-05-29T15:12:05.908Z,101683.48
2019-05-29T15:13:11.064Z,101677.76
2019-05-29T15:14:17.957Z,101681.67
2019-05-29T15:15:23.076Z,101677.84
2019-05-29T15:16:28.392Z,101679.80
2019-05-29T15:17:33.671Z,101677.41
2019-05-29T15:18:39.245Z,101677.20
2019-05-29T15:19:44.495Z,101678.08
2019-05-29T15:20:50.466Z,101681.98
2019-05-29T15:21:55.250Z,101685.13
2019-05-29T15:23:01.160Z,101683.95
2019-05-29T15:24:07.305Z,101687.37
2019-05-29T15:25:21.022Z,101677.64
2019-05-29T15:26:19.134Z,101682.44
2019-05-29T15:27:24.781Z,101682.28
2019-05-29T15:28:30.134Z,101682.89
2019-05-29T15:29:35.785Z,101686.13
2019-05-29T15:30:40.503Z,101683.67
2019-05-29T15:31:45.618Z,101682.57
2019-05-29T15:32:50.744Z,101682.09
2019-05-29T15:33:56.526Z,101677.20
2019-05-29T15:35:01.852Z,101682.03
2019-05-29T15:36:07.051Z,101678.07
2019-05-29T15:37:13.908Z,101686.41
2019-05-29T15:38:19.174Z,101672.70
2019-05-29T15:39:23.863Z,101677.67
2019-05-29T15:40:29.136Z,101678.88
2019-05-29T15:41:34.419Z,101677.92
2019-05-29T15:42:39.749Z,101685.95
2019-05-29T15:43:44.541Z,101691.33
2019-05-29T15:44:50.647Z,101679.75
2019-05-29T15:45:55.736Z,101681.63
2019-05-29T15:47:01.397Z,101687.05
2019-05-29T15:48:07.011Z,101680.91
2019-05-29T15:49:13.894Z,101677.25
2019-05-29T15:50:20.625Z,101691.95
2019-05-29T15:51:26.840Z,101682.19
2019-05-29T15:52:32.093Z,101685.13
2019-05-29T15:53:37.720Z,101683.25
2019-05-29T15:54:42.686Z,101682.69
2019-05-29T15:55:47.988Z,101678.44
2019-05-29T15:56:52.725Z,101680.92
2019-05-29T15:57:58.588Z,101681.58
2019-05-29T15:59:03.796Z,101678.38
2019-05-29T16:00:11.342Z,101684.02
2019-05-29T16:01:17.857Z,101682.55
2019-05-29T16:02:23.841Z,101680.06
2019-05-29T16:03:28.586Z,101676.95
2019-05-29T16:04:35.084Z,101685.09
2019-05-29T16:05:40.375Z,101687.17
2019-05-29T16:06:45.771Z,101683.06
2019-05-29T16:07:51.115Z,101682.71
2019-05-29T16:08:56.692Z,101681.28
2019-05-29T16:10:01.425Z,101680.31
2019-05-29T16:11:08.569Z,101680.72
2019-05-29T16:12:14.641Z,101676.16
2019-05-29T16:13:23.816Z,101673.68
2019-05-29T16:14:28.511Z,101672.34
2019-05-29T16:15:33.781Z,101672.61
2019-05-29T16:16:38.559Z,101670.08
2019-05-29T16:17:44.531Z,101672.11
2019-05-29T16:18:49.784Z,101674.73
2019-05-29T16:19:54.861Z,101672.27
2019-05-29T16:20:59.924Z,101666.82
2019-05-29T16:22:05.479Z,101668.89
2019-05-29T16:23:10.934Z,101669.03
2019-05-29T16:24:16.822Z,101669.69
2019-05-29T16:25:38.855Z,101670.29
2019-05-29T16:26:29.150Z,101671.17
2019-05-29T16:27:34.155Z,101672.50
2019-05-29T16:28:39.791Z,101675.62
2019-05-29T16:29:44.501Z,101674.94
2019-05-29T16:30:49.775Z,101676.08
2019-05-29T16:31:54.681Z,101668.73
2019-05-29T16:33:00.239Z,101667.31
2019-05-29T16:34:05.015Z,101665.55
2019-05-29T16:35:11.160Z,101665.55
2019-05-29T16:36:16.601Z,101666.14
2019-05-29T16:37:22.512Z,101670.14
2019-05-29T16:38:27.492Z,101666.76
2019-05-29T16:39:33.069Z,101671.00
2019-05-29T16:40:38.308Z,101667.99
2019-05-29T16:41:43.880Z,101667.27
2019-05-29T16:42:48.565Z,101669.20
2019-05-29T16:43:54.092Z,101667.81
2019-05-29T16:44:59.033Z,101667.27
2019-05-29T16:46:04.294Z,101670.82
2019-05-29T16:47:09.314Z,101664.72
2019-05-29T16:48:14.665Z,101656.31
2019-05-29T16:49:21.275Z,101666.36
2019-05-29T16:50:26.939Z,101664.61
2019-05-29T16:51:31.591Z,101661.20
2019-05-29T16:52:37.501Z,101666.52
2019-05-29T16:53:42.216Z,101667.02
2019-05-29T16:54:48.098Z,101664.72
2019-05-29T16:55:54.632Z,101668.14
2019-05-29T16:57:00.544Z,101666.77
2019-05-29T16:58:05.352Z,101666.12
2019-05-29T16:59:10.964Z,101665.82
2019-05-29T17:00:17.620Z,101660.87
2019-05-29T17:01:23.967Z,101664.66
2019-05-29T17:02:28.818Z,101663.72
2019-05-29T17:03:34.422Z,101658.31
2019-05-29T17:04:39.150Z,101658.43
2019-05-29T17:05:44.226Z,101660.86
2019-05-29T17:06:49.180Z,101655.23
2019-05-29T17:07:54.999Z,101657.83
2019-05-29T17:08:59.727Z,101653.41
2019-05-29T17:10:06.462Z,101656.29
2019-05-29T17:11:11.296Z,101656.83
2019-05-29T17:12:18.168Z,101663.33
2019-05-29T17:13:24.672Z,101661.95
2019-05-29T17:14:30.124Z,101660.03
2019-05-29T17:15:34.553Z,101658.94
2019-05-29T17:16:40.151Z,101662.44
2019-05-29T17:17:44.865Z,101665.94
2019-05-29T17:18:51.742Z,101668.53
2019-05-29T17:19:56.233Z,101659.39
2019-05-29T17:21:01.499Z,101656.42
2019-05-29T17:22:06.330Z,101662.48
2019-05-29T17:23:12.096Z,101659.38
2019-05-29T17:24:17.074Z,101662.47
2019-05-29T17:25:25.672Z,101666.55
2019-05-29T17:26:29.338Z,101667.75
2019-05-29T17:27:34.933Z,101661.83
2019-05-29T17:28:39.902Z,101658.75
2019-05-29T17:29:45.752Z,101658.55
2019-05-29T17:30:50.996Z,101657.83
2019-05-29T17:31:56.415Z,101663.95
2019-05-29T17:33:01.200Z,101661.16
2019-05-29T17:34:06.477Z,101663.72
2019-05-29T17:35:11.596Z,101665.23
2019-05-29T17:36:16.915Z,101667.83
2019-05-29T17:37:23.130Z,101669.72
2019-05-29T17:38:28.554Z,101661.41
2019-05-29T17:39:33.299Z,101665.73
2019-05-29T17:40:38.599Z,101669.19
2019-05-29T17:41:43.573Z,101671.58
2019-05-29T17:42:48.896Z,101671.50
2019-05-29T17:43:53.895Z,101672.44
2019-05-29T17:44:59.735Z,101675.95
2019-05-29T17:46:04.408Z,101674.73
2019-05-29T17:47:09.661Z,101683.70
2019-05-29T17:48:15.461Z,101675.64
2019-05-29T17:49:30.321Z,101681.03
2019-05-29T17:50:27.500Z,101685.27
2019-05-29T17:51:33.067Z,101684.59
2019-05-29T17:52:38.128Z,101684.56
2019-05-29T17:53:43.939Z,101681.94
2019-05-29T17:54:48.922Z,101678.87
2019-05-29T17:55:54.243Z,101686.20
2019-05-29T17:56:59.184Z,101693.89
2019-05-29T17:58:04.433Z,101687.91
2019-05-29T17:59:09.138Z,101689.78
2019-05-29T18:00:17.917Z,101690.31
2019-05-29T18:01:24.031Z,101689.38
2019-05-29T18:02:30.072Z,101688.42
2019-05-29T18:03:34.754Z,101693.52
2019-05-29T18:04:40.329Z,101688.72
2019-05-29T18:05:45.593Z,101688.84
2019-05-29T18:06:51.136Z,101689.25
2019-05-29T18:08:59.755Z,101689.14
2019-05-29T18:10:04.942Z,101688.73
2019-05-29T18:11:10.300Z,101690.03
2019-05-29T18:12:15.225Z,101686.48
2019-05-29T18:13:21.344Z,101681.59
2019-05-29T18:14:26.116Z,101683.77
2019-05-29T18:15:31.765Z,101686.42
2019-05-29T18:16:36.651Z,101686.41
2019-05-29T18:17:44.268Z,101680.91
2019-05-29T18:18:48.907Z,101684.33
2019-05-29T18:19:53.975Z,101690.08
2019-05-29T18:20:59.131Z,101690.30
2019-05-29T18:22:04.345Z,101692.30
2019-05-29T18:23:08.982Z,101696.11
2019-05-29T18:24:14.646Z,101689.38
2019-05-29T18:25:21.801Z,101692.94
2019-05-29T18:26:42.636Z,101693.20
2019-05-29T18:27:33.819Z,101694.19
2019-05-29T18:28:39.465Z,101696.59
2019-05-29T18:29:44.697Z,101694.14
2019-05-29T18:30:50.345Z,101690.30
2019-05-29T18:31:55.227Z,101693.77
2019-05-29T18:33:00.356Z,101695.53
2019-05-29T18:34:05.246Z,101688.61
2019-05-29T18:35:10.991Z,101686.06
2019-05-29T18:36:16.120Z,101689.18
2019-05-29T18:37:22.038Z,101688.05
2019-05-29T18:38:28.741Z,101687.67
2019-05-29T18:39:35.050Z,101686.29
2019-05-29T18:40:40.291Z,101685.42
2019-05-29T18:41:45.909Z,101684.37
2019-05-29T18:42:50.887Z,101683.55
2019-05-29T18:43:56.229Z,101684.78
2019-05-29T18:45:00.898Z,101682.04
2019-05-29T18:46:05.920Z,101684.89
2019-05-29T18:47:10.796Z,101689.34
2019-05-29T18:48:15.902Z,101685.38
2019-05-29T18:49:22.156Z,101685.48
2019-05-29T18:50:27.651Z,101682.55
2019-05-29T18:51:32.929Z,101687.08
2019-05-29T18:52:37.988Z,101686.05
2019-05-29T18:53:42.998Z,101688.48
2019-05-29T18:54:48.702Z,101687.11
2019-05-29T18:55:53.868Z,101684.84
2019-05-29T18:57:14.704Z,101689.56
2019-05-29T18:58:05.925Z,101692.15
2019-05-29T18:59:11.311Z,101689.05
2019-05-29T19:00:17.185Z,101694.58
2019-05-29T19:01:23.456Z,101686.89
2019-05-29T19:02:29.576Z,101692.75
2019-05-29T19:03:34.688Z,101692.30
2019-05-29T19:04:39.915Z,101691.12
2019-05-29T19:05:45.370Z,101698.17
2019-05-29T19:06:50.562Z,101692.96
2019-05-29T19:07:55.644Z,101692.71
2019-05-29T19:09:00.542Z,101691.36
2019-05-29T19:10:07.036Z,101690.37
2019-05-29T19:11:11.939Z,101692.09
2019-05-29T19:12:17.587Z,101691.08
2019-05-29T19:13:23.775Z,101693.90
2019-05-29T19:14:29.950Z,101693.83
2019-05-29T19:15:34.595Z,101700.02
2019-05-29T19:16:39.814Z,101700.75
2019-05-29T19:17:44.680Z,101705.44
2019-05-29T19:18:50.370Z,101699.05
2019-05-29T19:19:55.922Z,101704.45
2019-05-29T19:21:01.254Z,101702.41
2019-05-29T19:22:06.395Z,101702.68
2019-05-29T19:23:11.748Z,101701.77
2019-05-29T19:24:16.510Z,101698.61
2019-05-29T19:25:22.748Z,101700.20
2019-05-29T19:26:28.788Z,101699.69
2019-05-29T19:27:41.677Z,101707.27
2019-05-29T19:28:41.607Z,101700.12
2019-05-29T19:29:46.700Z,101705.50
2019-05-29T19:30:52.024Z,101706.69
2019-05-29T19:31:57.131Z,101710.19
2019-05-29T19:33:02.000Z,101711.30
2019-05-29T19:34:06.836Z,101711.86
2019-05-29T19:35:12.007Z,101714.04
2019-05-29T19:36:17.069Z,101718.97
2019-05-29T19:37:22.222Z,101721.27
2019-05-29T19:38:27.834Z,101723.91
2019-05-29T19:39:34.189Z,101721.80
2019-05-29T19:40:40.161Z,101731.06
2019-05-29T19:41:45.597Z,101716.15
2019-05-29T19:42:54.340Z,101728.94
2019-05-29T19:43:57.872Z,101730.90
2019-05-29T19:45:02.945Z,101733.77
2019-05-29T19:46:08.384Z,101729.28
2019-05-29T19:47:14.012Z,101734.27
2019-05-29T19:48:18.885Z,101731.95
2019-05-29T19:49:25.594Z,101733.38
2019-05-29T19:50:31.147Z,101737.73
2019-05-29T19:51:36.258Z,101737.16
2019-05-29T19:52:41.459Z,101739.95
2019-05-29T19:53:46.286Z,101739.22
2019-05-29T19:54:51.466Z,101745.58
2019-05-29T19:55:56.852Z,101742.80
2019-05-29T19:57:02.118Z,101743.17
2019-05-29T19:58:07.320Z,101748.47
2019-05-29T19:59:12.662Z,101745.72
2019-05-29T20:00:19.882Z,101740.98
2019-05-29T20:01:31.708Z,101743.13
2019-05-29T20:02:32.649Z,101743.38
2019-05-29T20:03:38.144Z,101740.06
2019-05-29T20:04:43.235Z,101741.38
2019-05-29T20:05:48.410Z,101745.58
2019-05-29T20:06:53.232Z,101750.30
2019-05-29T20:07:58.402Z,101748.94
2019-05-29T20:09:03.848Z,101754.53
2019-05-29T20:10:10.633Z,101755.63
2019-05-29T20:11:16.013Z,101756.81
2019-05-29T20:12:21.170Z,101759.44
2019-05-29T20:13:26.039Z,101756.08
2019-05-29T20:14:31.771Z,101758.27
2019-05-29T20:15:38.033Z,101752.50
2019-05-29T20:16:43.482Z,101754.81
2019-05-29T20:17:48.755Z,101754.28
2019-05-29T20:18:54.174Z,101757.39
2019-05-29T20:19:59.562Z,101752.77
2019-05-29T20:21:04.482Z,101762.11
2019-05-29T20:22:09.599Z,101756.47
2019-05-29T20:23:14.814Z,101756.92
2019-05-29T20:24:19.961Z,101751.33
2019-05-29T20:25:25.385Z,101760.75
2019-05-29T20:26:30.953Z,101755.55
2019-05-29T20:27:36.500Z,101753.16
2019-05-29T20:28:42.579Z,101755.84
2019-05-29T20:29:47.900Z,101756.73
2019-05-29T20:30:53.604Z,101758.39
2019-05-29T20:31:58.900Z,101759.52
2019-05-29T20:33:04.265Z,101761.34
2019-05-29T20:34:09.133Z,101761.53
2019-05-29T20:35:14.266Z,101759.61
2019-05-29T20:36:19.439Z,101762.67
2019-05-29T20:37:25.418Z,101759.31
2019-05-29T20:38:30.970Z,101762.91
2019-05-29T20:39:38.348Z,101762.66
2019-05-29T20:40:43.660Z,101758.55
2019-05-29T20:41:49.073Z,101756.96
2019-05-29T20:42:54.364Z,101760.39
2019-05-29T20:43:59.507Z,101750.95
2019-05-29T20:45:04.719Z,101756.24
2019-05-29T20:46:09.782Z,101760.56
2019-05-29T20:47:14.482Z,101758.17
2019-05-29T20:48:20.109Z,101755.86
2019-05-29T20:49:25.345Z,101761.00
2019-05-29T20:50:30.992Z,101758.94
2019-05-29T20:51:36.229Z,101760.36
2019-05-29T20:52:41.498Z,101760.70
2019-05-29T20:53:46.406Z,101768.27
2019-05-29T20:54:51.768Z,101766.62
2019-05-29T20:55:56.664Z,101763.48
2019-05-29T20:57:11.607Z,101763.70
2019-05-29T20:58:24.484Z,101759.81
2019-05-29T20:59:23.190Z,101768.65
2019-05-29T21:00:28.368Z,101768.17
2019-05-29T21:01:42.970Z,101768.61
2019-05-29T21:02:40.572Z,101768.53
2019-05-29T21:03:45.743Z,101766.33
2019-05-29T21:04:51.285Z,101769.37
2019-05-29T21:05:56.384Z,101764.64
2019-05-29T21:07:01.304Z,101760.91
2019-05-29T21:08:06.964Z,101760.72
2019-05-29T21:09:11.864Z,101767.83
2019-05-29T21:10:17.074Z,101768.63
2019-05-29T21:11:22.261Z,101765.09
2019-05-29T21:12:27.325Z,101767.08
2019-05-29T21:13:33.317Z,101763.77
2019-05-29T21:14:39.661Z,101765.16
2019-05-29T21:15:44.793Z,101771.86
2019-05-29T21:16:50.344Z,101767.67
2019-05-29T21:17:55.277Z,101773.70
2019-05-29T21:19:00.396Z,101772.42
2019-05-29T21:20:05.910Z,101771.27
2019-05-29T21:21:10.948Z,101772.05
2019-05-29T21:22:16.440Z,101773.47
2019-05-29T21:23:21.268Z,101776.36
2019-05-29T21:24:26.742Z,101769.81
2019-05-29T21:25:32.199Z,101781.11
2019-05-29T21:26:37.423Z,101777.30
2019-05-29T21:27:46.670Z,101776.17
2019-05-29T21:28:50.800Z,101776.94
2019-05-29T21:29:56.350Z,101773.09
2019-05-29T21:31:01.315Z,101773.74
2019-05-29T21:32:06.402Z,101778.16
2019-05-29T21:33:11.579Z,101777.66
2019-05-29T21:34:17.178Z,101782.37
2019-05-29T21:35:22.423Z,101778.19
2019-05-29T21:36:27.903Z,101779.28
2019-05-29T21:37:33.061Z,101781.30
2019-05-29T21:38:38.687Z,101776.00
2019-05-29T21:39:44.522Z,101777.91
2019-05-29T21:40:50.286Z,101771.31
2019-05-29T21:41:55.717Z,101774.39
2019-05-29T21:43:01.332Z,101775.19
2019-05-29T21:44:06.243Z,101770.48
2019-05-29T21:45:11.475Z,101775.05
2019-05-29T21:46:17.035Z,101780.20
2019-05-29T21:47:22.412Z,101781.66
2019-05-29T21:48:27.295Z,101782.81
2019-05-29T21:49:33.105Z,101779.75
2019-05-29T21:50:38.819Z,101782.08
2019-05-29T21:51:45.783Z,101781.72
2019-05-29T21:52:51.048Z,101781.80
2019-05-29T21:53:56.398Z,101783.02
2019-05-29T21:55:01.597Z,101780.78
2019-05-29T21:56:06.415Z,101783.19
2019-05-29T21:57:11.578Z,101783.91
2019-05-29T21:58:16.847Z,101787.73
2019-05-29T21:59:22.244Z,101785.23
2019-05-29T22:00:36.034Z,101789.86
2019-05-29T22:01:42.058Z,101788.12
2019-05-29T22:02:48.549Z,101782.03
2019-05-29T22:03:53.909Z,101786.48
2019-05-29T22:04:59.298Z,101791.25
2019-05-29T22:06:03.990Z,101784.50
2019-05-29T22:07:09.051Z,101791.77
2019-05-29T22:08:13.941Z,101788.55
2019-05-29T22:09:18.804Z,101791.31
2019-05-29T22:10:26.177Z,101785.20
2019-05-29T22:11:31.135Z,101784.49
2019-05-29T22:12:36.038Z,101785.52
2019-05-29T22:13:41.429Z,101779.64
2019-05-29T22:14:46.387Z,101781.45
2019-05-29T22:15:52.542Z,101779.23
2019-05-29T22:16:59.119Z,101774.84
2019-05-29T22:18:04.307Z,101780.52
2019-05-29T22:19:09.238Z,101782.98
2019-05-29T22:20:15.011Z,101773.38
2019-05-29T22:21:20.187Z,101774.48
2019-05-29T22:22:25.258Z,101775.27
2019-05-29T22:23:30.419Z,101766.77
2019-05-29T22:24:36.057Z,101768.94
2019-05-29T22:25:41.532Z,101776.03
2019-05-29T22:26:46.871Z,101776.22
2019-05-29T22:27:53.340Z,101772.59
2019-05-29T22:29:15.696Z,101770.54
2019-05-29T22:30:07.070Z,101766.13
2019-05-29T22:31:12.678Z,101768.38
2019-05-29T22:32:17.895Z,101770.49
2019-05-29T22:33:23.240Z,101773.60
2019-05-29T22:34:28.680Z,101771.79
2019-05-29T22:35:34.046Z,101773.66
2019-05-29T22:36:39.526Z,101765.27
2019-05-29T22:37:45.195Z,101772.73
2019-05-29T22:38:51.381Z,101772.93
2019-05-29T22:39:57.652Z,101771.18
2019-05-29T22:41:03.168Z,101771.70
2019-05-29T22:42:08.230Z,101774.19
2019-05-29T22:43:13.676Z,101772.15
2019-05-29T22:44:19.143Z,101770.91
2019-05-29T22:45:24.610Z,101773.95
2019-05-29T22:46:30.264Z,101775.17
2019-05-29T22:47:35.424Z,101775.13
2019-05-29T22:48:40.788Z,101769.98
2019-05-29T22:49:46.626Z,101771.89
2019-05-29T22:50:51.711Z,101767.80
2019-05-29T22:51:57.823Z,101773.14
2019-05-29T22:53:02.946Z,101768.29
2019-05-29T22:54:07.815Z,101776.92
2019-05-29T22:55:12.850Z,101770.85
2019-05-29T22:56:17.994Z,101771.39
2019-05-29T22:57:23.626Z,101774.44
2019-05-29T22:58:28.852Z,101769.92
2019-05-29T22:59:34.278Z,101773.51
2019-05-29T23:00:39.682Z,101772.56
2019-05-29T23:01:45.144Z,101768.66
2019-05-29T23:02:51.832Z,101771.73
2019-05-29T23:03:58.218Z,101769.45
2019-05-29T23:05:03.746Z,101764.86
2019-05-29T23:06:09.098Z,101766.98
2019-05-29T23:07:14.410Z,101766.55
2019-05-29T23:08:19.524Z,101768.73
2019-05-29T23:09:24.693Z,101772.99
2019-05-29T23:10:30.009Z,101770.39
2019-05-29T23:11:35.267Z,101772.00
2019-05-29T23:12:40.355Z,101774.66
2019-05-29T23:13:45.241Z,101778.14
2019-05-29T23:14:50.318Z,101775.52
2019-05-29T23:15:56.616Z,101773.34
2019-05-29T23:17:02.691Z,101776.39
2019-05-29T23:18:07.806Z,101774.65
2019-05-29T23:19:12.643Z,101778.08
2019-05-29T23:20:18.243Z,101771.98
2019-05-29T23:21:24.472Z,101776.39
2019-05-29T23:22:29.353Z,101778.14
2019-05-29T23:23:34.456Z,101773.35
2019-05-29T23:24:39.912Z,101775.41
2019-05-29T23:25:45.538Z,101767.59
2019-05-29T23:26:50.968Z,101770.62
2019-05-29T23:27:56.948Z,101768.70
2019-05-29T23:29:03.530Z,101770.79
2019-05-29T23:30:08.880Z,101765.89
2019-05-29T23:31:14.049Z,101771.52
2019-05-29T23:32:19.960Z,101772.91
2019-05-29T23:33:25.423Z,101774.70
2019-05-29T23:34:30.548Z,101766.81
2019-05-29T23:35:35.992Z,101780.06
2019-05-29T23:36:41.614Z,101779.44
2019-05-29T23:37:46.944Z,101772.52
2019-05-29T23:38:53.170Z,101775.78
2019-05-29T23:39:57.890Z,101776.06
2019-05-29T23:41:03.759Z,101778.70
2019-05-29T23:42:09.173Z,101775.14
2019-05-29T23:43:14.532Z,101772.48
2019-05-29T23:44:19.712Z,101780.05
2019-05-29T23:45:25.344Z,101787.02
2019-05-29T23:46:30.576Z,101784.31
2019-05-29T23:47:36.299Z,101773.68
2019-05-29T23:48:41.756Z,101780.75
2019-05-29T23:49:47.827Z,101782.53
2019-05-29T23:50:53.422Z,101775.95
2019-05-29T23:51:59.704Z,101781.80
2019-05-29T23:53:05.316Z,101725.20
2019-05-29T23:54:10.371Z,101768.51
2019-05-29T23:55:15.550Z,101778.14
2019-05-29T23:56:21.015Z,101780.89
2019-05-29T23:57:25.889Z,101773.68
2019-05-29T23:58:31.237Z,101774.02
2019-05-29T23:59:36.249Z,101774.45
